sensor_id;sensor_type;location;lat;lon;timestamp;pressure;altitude;pressure_sealevel;temperature;humidity
56330;BME280;42236;48.058;10.632;2023-04-09T00:02:15;95273.25;;;4.50;93.93
56330;BME280;42236;48.058;10.632;2023-04-09T00:05:01;95274.63;;;4.47;94.14
56330;BME280;42236;48.058;10.632;2023-04-09T00:07:47;95274.63;;;4.47;94.13
56330;BME280;42236;48.058;10.632;2023-04-09T00:10:32;95267.69;;;4.46;93.55
56330;BME280;42236;48.058;10.632;2023-04-09T00:13:19;95280.25;;;4.46;93.99
56330;BME280;42236;48.058;10.632;2023-04-09T00:16:05;95276.53;;;4.42;93.72
56330;BME280;42236;48.058;10.632;2023-04-09T00:18:50;95273.66;;;4.38;93.77
56330;BME280;42236;48.058;10.632;2023-04-09T00:21:36;95267.28;;;4.34;93.78
56330;BME280;42236;48.058;10.632;2023-04-09T00:24:22;95274.56;;;4.28;93.88
56330;BME280;42236;48.058;10.632;2023-04-09T00:27:07;95264.75;;;4.24;93.94
56330;BME280;42236;48.058;10.632;2023-04-09T00:29:53;95265.00;;;4.22;94.23
56330;BME280;42236;48.058;10.632;2023-04-09T00:32:40;95268.78;;;4.21;94.43
56330;BME280;42236;48.058;10.632;2023-04-09T00:35:26;95265.59;;;4.19;94.45
56330;BME280;42236;48.058;10.632;2023-04-09T00:38:12;95267.16;;;4.20;94.26
56330;BME280;42236;48.058;10.632;2023-04-09T00:40:57;95264.81;;;4.19;94.36
56330;BME280;42236;48.058;10.632;2023-04-09T00:43:43;95273.09;;;4.17;94.21
56330;BME280;42236;48.058;10.632;2023-04-09T00:46:30;95265.13;;;4.12;94.69
56330;BME280;42236;48.058;10.632;2023-04-09T00:49:15;95269.44;;;4.08;94.77
56330;BME280;42236;48.058;10.632;2023-04-09T00:52:01;95270.25;;;4.09;95.06
56330;BME280;42236;48.058;10.632;2023-04-09T00:54:51;95267.28;;;4.10;94.71
56330;BME280;42236;48.058;10.632;2023-04-09T00:57:36;95262.47;;;4.12;94.55
56330;BME280;42236;48.058;10.632;2023-04-09T01:00:22;95264.56;;;4.15;94.42
56330;BME280;42236;48.058;10.632;2023-04-09T01:03:08;95265.66;;;4.14;94.33
56330;BME280;42236;48.058;10.632;2023-04-09T01:06:14;95262.97;;;4.14;94.60
56330;BME280;42236;48.058;10.632;2023-04-09T01:09:09;95263.56;;;4.11;94.53
56330;BME280;42236;48.058;10.632;2023-04-09T01:12:04;95259.78;;;4.12;94.20
56330;BME280;42236;48.058;10.632;2023-04-09T01:15:17;95265.94;;;4.13;93.92
56330;BME280;42236;48.058;10.632;2023-04-09T01:18:10;95257.19;;;4.07;93.37
56330;BME280;42236;48.058;10.632;2023-04-09T01:21:09;95261.84;;;3.96;92.71
56330;BME280;42236;48.058;10.632;2023-04-09T01:24:05;95254.75;;;3.81;92.91
56330;BME280;42236;48.058;10.632;2023-04-09T01:29:45;95258.09;;;3.68;93.04
56330;BME280;42236;48.058;10.632;2023-04-09T01:32:33;95256.00;;;3.65;93.00
56330;BME280;42236;48.058;10.632;2023-04-09T01:35:21;95266.16;;;3.63;93.38
56330;BME280;42236;48.058;10.632;2023-04-09T01:38:08;95264.00;;;3.65;93.58
56330;BME280;42236;48.058;10.632;2023-04-09T01:40:56;95266.16;;;3.63;93.31
56330;BME280;42236;48.058;10.632;2023-04-09T01:43:42;95263.50;;;3.63;93.20
56330;BME280;42236;48.058;10.632;2023-04-09T01:46:31;95262.69;;;3.62;93.01
56330;BME280;42236;48.058;10.632;2023-04-09T01:49:18;95256.31;;;3.58;93.15
56330;BME280;42236;48.058;10.632;2023-04-09T01:52:04;95256.31;;;3.58;92.85
56330;BME280;42236;48.058;10.632;2023-04-09T01:54:49;95259.84;;;3.54;93.15
56330;BME280;42236;48.058;10.632;2023-04-09T01:57:35;95258.78;;;3.50;93.65
56330;BME280;42236;48.058;10.632;2023-04-09T02:00:22;95257.78;;;3.46;93.68
56330;BME280;42236;48.058;10.632;2023-04-09T02:03:23;95255.94;;;3.41;94.36
56330;BME280;42236;48.058;10.632;2023-04-09T02:06:30;95253.59;;;3.34;94.21
56330;BME280;42236;48.058;10.632;2023-04-09T02:09:20;95256.34;;;3.24;94.76
56330;BME280;42236;48.058;10.632;2023-04-09T02:12:10;95254.78;;;3.18;94.86
56330;BME280;42236;48.058;10.632;2023-04-09T02:14:57;95249.50;;;3.13;95.20
56330;BME280;42236;48.058;10.632;2023-04-09T02:17:43;95256.72;;;3.07;95.97
56330;BME280;42236;48.058;10.632;2023-04-09T02:20:29;95249.56;;;3.03;94.98
56330;BME280;42236;48.058;10.632;2023-04-09T02:23:15;95250.09;;;2.99;95.29
56330;BME280;42236;48.058;10.632;2023-04-09T02:26:01;95245.31;;;2.96;95.02
56330;BME280;42236;48.058;10.632;2023-04-09T02:28:47;95253.63;;;2.95;95.04
56330;BME280;42236;48.058;10.632;2023-04-09T02:31:32;95246.69;;;2.94;94.93
56330;BME280;42236;48.058;10.632;2023-04-09T02:34:19;95244.31;;;2.92;95.40
56330;BME280;42236;48.058;10.632;2023-04-09T02:37:04;95246.72;;;2.89;95.24
56330;BME280;42236;48.058;10.632;2023-04-09T02:39:50;95250.72;;;2.86;94.41
56330;BME280;42236;48.058;10.632;2023-04-09T02:42:35;95256.06;;;2.86;94.29
56330;BME280;42236;48.058;10.632;2023-04-09T02:45:21;95256.31;;;2.85;94.14
56330;BME280;42236;48.058;10.632;2023-04-09T02:48:07;95250.31;;;2.69;92.84
56330;BME280;42236;48.058;10.632;2023-04-09T02:50:52;95253.09;;;2.43;92.67
56330;BME280;42236;48.058;10.632;2023-04-09T02:53:38;95253.69;;;2.30;93.64
56330;BME280;42236;48.058;10.632;2023-04-09T02:56:25;95243.56;;;2.27;93.90
56330;BME280;42236;48.058;10.632;2023-04-09T02:59:11;95243.56;;;2.27;93.68
56330;BME280;42236;48.058;10.632;2023-04-09T03:01:56;95241.97;;;2.31;93.18
56330;BME280;42236;48.058;10.632;2023-04-09T03:04:42;95238.78;;;2.24;93.07
56330;BME280;42236;48.058;10.632;2023-04-09T03:07:27;95242.56;;;2.18;93.24
56330;BME280;42236;48.058;10.632;2023-04-09T03:10:13;95246.31;;;2.06;92.84
56330;BME280;42236;48.058;10.632;2023-04-09T03:12:59;95239.72;;;1.94;93.53
56330;BME280;42236;48.058;10.632;2023-04-09T03:15:44;95245.31;;;1.87;93.36
56330;BME280;42236;48.058;10.632;2023-04-09T03:18:30;95241.03;;;1.81;93.65
56330;BME280;42236;48.058;10.632;2023-04-09T03:21:15;95240.53;;;1.74;93.63
56330;BME280;42236;48.058;10.632;2023-04-09T03:24:01;95236.81;;;1.75;94.00
56330;BME280;42236;48.058;10.632;2023-04-09T03:26:48;95223.78;;;1.78;93.79
56330;BME280;42236;48.058;10.632;2023-04-09T03:29:34;95234.16;;;1.80;93.93
56330;BME280;42236;48.058;10.632;2023-04-09T03:32:19;95220.84;;;1.80;93.47
56330;BME280;42236;48.058;10.632;2023-04-09T03:35:05;95224.06;;;1.77;93.64
56330;BME280;42236;48.058;10.632;2023-04-09T03:37:51;95212.34;;;1.78;93.80
56330;BME280;42236;48.058;10.632;2023-04-09T03:40:36;95221.09;;;1.78;93.69
56330;BME280;42236;48.058;10.632;2023-04-09T03:43:22;95217.91;;;1.76;93.52
56330;BME280;42236;48.058;10.632;2023-04-09T03:46:12;95220.88;;;1.59;92.41
56330;BME280;42236;48.058;10.632;2023-04-09T03:48:57;95223.59;;;1.34;92.78
56330;BME280;42236;48.058;10.632;2023-04-09T03:51:43;95217.22;;;1.24;93.31
56330;BME280;42236;48.058;10.632;2023-04-09T03:54:29;95229.44;;;1.20;92.94
56330;BME280;42236;48.058;10.632;2023-04-09T03:57:15;95232.09;;;1.20;92.69
56330;BME280;42236;48.058;10.632;2023-04-09T04:00:01;95236.59;;;1.20;92.92
56330;BME280;42236;48.058;10.632;2023-04-09T04:02:46;95231.03;;;1.16;92.28
56330;BME280;42236;48.058;10.632;2023-04-09T04:05:32;95230.22;;;1.11;92.57
56330;BME280;42236;48.058;10.632;2023-04-09T04:08:17;95225.44;;;1.13;93.04
56330;BME280;42236;48.058;10.632;2023-04-09T04:11:04;95232.09;;;1.15;92.80
56330;BME280;42236;48.058;10.632;2023-04-09T04:13:49;95235.28;;;1.17;92.93
56330;BME280;42236;48.058;10.632;2023-04-09T04:16:35;95238.22;;;1.21;93.01
56330;BME280;42236;48.058;10.632;2023-04-09T04:19:21;95236.88;;;1.23;93.08
56330;BME280;42236;48.058;10.632;2023-04-09T04:22:06;95230.50;;;1.30;93.37
56330;BME280;42236;48.058;10.632;2023-04-09T04:24:52;95233.69;;;1.32;93.57
56330;BME280;42236;48.058;10.632;2023-04-09T04:27:41;95231.03;;;1.37;93.77
56330;BME280;42236;48.058;10.632;2023-04-09T04:30:27;95232.09;;;1.41;93.79
56330;BME280;42236;48.058;10.632;2023-04-09T04:33:13;95231.00;;;1.42;94.27
56330;BME280;42236;48.058;10.632;2023-04-09T04:36:09;95233.13;;;1.45;93.46
56330;BME280;42236;48.058;10.632;2023-04-09T04:38:55;95239.53;;;1.44;93.62
56330;BME280;42236;48.058;10.632;2023-04-09T04:41:41;95240.59;;;1.43;93.43
56330;BME280;42236;48.058;10.632;2023-04-09T04:44:27;95244.84;;;1.39;94.39
56330;BME280;42236;48.058;10.632;2023-04-09T04:47:12;95242.44;;;1.37;93.98
56330;BME280;42236;48.058;10.632;2023-04-09T04:49:58;95241.66;;;1.37;94.58
56330;BME280;42236;48.058;10.632;2023-04-09T04:52:44;95251.25;;;1.38;94.41
56330;BME280;42236;48.058;10.632;2023-04-09T04:55:29;95241.09;;;1.40;94.60
56330;BME280;42236;48.058;10.632;2023-04-09T04:58:15;95241.63;;;1.47;93.92
56330;BME280;42236;48.058;10.632;2023-04-09T05:01:04;95243.78;;;1.50;93.62
56330;BME280;42236;48.058;10.632;2023-04-09T05:03:50;95246.94;;;1.52;93.29
56330;BME280;42236;48.058;10.632;2023-04-09T05:06:35;95249.09;;;1.55;93.50
56330;BME280;42236;48.058;10.632;2023-04-09T05:09:21;95244.31;;;1.57;93.45
56330;BME280;42236;48.058;10.632;2023-04-09T05:12:07;95251.75;;;1.60;93.28
56330;BME280;42236;48.058;10.632;2023-04-09T05:14:52;95247.22;;;1.61;93.39
56330;BME280;42236;48.058;10.632;2023-04-09T05:17:41;95245.34;;;1.61;93.99
56330;BME280;42236;48.058;10.632;2023-04-09T05:20:27;95253.31;;;1.61;94.01
56330;BME280;42236;48.058;10.632;2023-04-09T05:23:12;95247.72;;;1.68;93.95
56330;BME280;42236;48.058;10.632;2023-04-09T05:25:58;95245.59;;;1.70;93.92
56330;BME280;42236;48.058;10.632;2023-04-09T05:28:44;95246.13;;;1.72;93.90
56330;BME280;42236;48.058;10.632;2023-04-09T05:31:29;95250.94;;;1.70;93.21
56330;BME280;42236;48.058;10.632;2023-04-09T05:34:16;95247.97;;;1.71;94.15
56330;BME280;42236;48.058;10.632;2023-04-09T05:37:02;95252.25;;;1.78;93.90
56330;BME280;42236;48.058;10.632;2023-04-09T05:39:48;95250.09;;;1.80;93.78
56330;BME280;42236;48.058;10.632;2023-04-09T05:42:34;95251.94;;;1.89;94.53
56330;BME280;42236;48.058;10.632;2023-04-09T05:45:20;95253.22;;;2.02;94.49
56330;BME280;42236;48.058;10.632;2023-04-09T05:48:06;95257.22;;;2.15;94.62
56330;BME280;42236;48.058;10.632;2023-04-09T05:50:51;95249.72;;;2.27;94.45
56330;BME280;42236;48.058;10.632;2023-04-09T05:53:37;95250.47;;;2.33;93.46
56330;BME280;42236;48.058;10.632;2023-04-09T05:56:23;95261.34;;;2.37;94.52
56330;BME280;42236;48.058;10.632;2023-04-09T05:59:08;95267.16;;;2.54;94.93
56330;BME280;42236;48.058;10.632;2023-04-09T06:01:54;95288.44;;;2.59;95.86
56330;BME280;42236;48.058;10.632;2023-04-09T06:04:40;95282.22;;;2.79;95.38
56330;BME280;42236;48.058;10.632;2023-04-09T06:07:26;95281.00;;;3.06;95.48
56330;BME280;42236;48.058;10.632;2023-04-09T06:10:11;95280.31;;;3.29;95.25
56330;BME280;42236;48.058;10.632;2023-04-09T06:12:57;95288.75;;;3.41;95.86
56330;BME280;42236;48.058;10.632;2023-04-09T06:15:43;95287.59;;;3.48;96.79
56330;BME280;42236;48.058;10.632;2023-04-09T06:18:28;95287.38;;;3.44;98.49
56330;BME280;42236;48.058;10.632;2023-04-09T06:21:14;95288.91;;;3.50;97.83
56330;BME280;42236;48.058;10.632;2023-04-09T06:23:59;95287.78;;;3.61;98.27
56330;BME280;42236;48.058;10.632;2023-04-09T06:26:45;95289.50;;;3.76;97.46
56330;BME280;42236;48.058;10.632;2023-04-09T06:29:31;95284.03;;;3.92;96.93
56330;BME280;42236;48.058;10.632;2023-04-09T06:32:17;95288.59;;;4.15;96.71
56330;BME280;42236;48.058;10.632;2023-04-09T06:35:03;95291.31;;;4.34;95.59
56330;BME280;42236;48.058;10.632;2023-04-09T06:37:49;95296.72;;;4.53;95.95
56330;BME280;42236;48.058;10.632;2023-04-09T06:40:38;95294.00;;;4.58;94.50
56330;BME280;42236;48.058;10.632;2023-04-09T06:43:24;95299.22;;;4.68;94.08
56330;BME280;42236;48.058;10.632;2023-04-09T06:46:09;95307.19;;;4.74;93.74
56330;BME280;42236;48.058;10.632;2023-04-09T06:48:55;95303.28;;;4.85;93.41
56330;BME280;42236;48.058;10.632;2023-04-09T06:51:41;95312.91;;;4.86;92.20
56330;BME280;42236;48.058;10.632;2023-04-09T06:54:27;95308.34;;;4.86;91.66
56330;BME280;42236;48.058;10.632;2023-04-09T06:57:12;95310.44;;;4.89;91.91
56330;BME280;42236;48.058;10.632;2023-04-09T06:59:58;95303.09;;;5.00;91.77
56330;BME280;42236;48.058;10.632;2023-04-09T07:02:44;95302.59;;;5.17;91.17
56330;BME280;42236;48.058;10.632;2023-04-09T07:05:29;95303.50;;;5.26;89.32
56330;BME280;42236;48.058;10.632;2023-04-09T07:08:15;95309.00;;;5.35;88.63
56330;BME280;42236;48.058;10.632;2023-04-09T07:11:01;95305.16;;;5.41;87.28
56330;BME280;42236;48.058;10.632;2023-04-09T07:13:47;95299.03;;;5.41;87.56
56330;BME280;42236;48.058;10.632;2023-04-09T07:16:33;95291.72;;;5.46;86.68
56330;BME280;42236;48.058;10.632;2023-04-09T07:19:19;95295.63;;;5.54;87.09
56330;BME280;42236;48.058;10.632;2023-04-09T07:22:04;95298.13;;;5.64;87.01
56330;BME280;42236;48.058;10.632;2023-04-09T07:24:50;95301.56;;;5.84;87.68
56330;BME280;42236;48.058;10.632;2023-04-09T07:27:39;95309.06;;;6.01;85.28
56330;BME280;42236;48.058;10.632;2023-04-09T07:30:25;95316.81;;;6.16;83.79
56330;BME280;42236;48.058;10.632;2023-04-09T07:33:11;95312.28;;;6.30;83.75
56330;BME280;42236;48.058;10.632;2023-04-09T07:35:57;95307.16;;;6.34;82.50
56330;BME280;42236;48.058;10.632;2023-04-09T07:38:43;95316.38;;;6.41;81.52
56330;BME280;42236;48.058;10.632;2023-04-09T07:41:29;95309.22;;;6.37;79.78
56330;BME280;42236;48.058;10.632;2023-04-09T07:44:14;95315.97;;;6.34;81.14
56330;BME280;42236;48.058;10.632;2023-04-09T07:47:03;95309.59;;;6.30;80.38
56330;BME280;42236;48.058;10.632;2023-04-09T07:49:49;95307.13;;;6.20;80.44
56330;BME280;42236;48.058;10.632;2023-04-09T07:52:34;95308.63;;;6.26;81.43
56330;BME280;42236;48.058;10.632;2023-04-09T07:55:20;95307.44;;;6.46;81.31
56330;BME280;42236;48.058;10.632;2023-04-09T07:58:07;95306.94;;;6.58;79.05
56330;BME280;42236;48.058;10.632;2023-04-09T08:00:53;95307.25;;;6.70;80.20
56330;BME280;42236;48.058;10.632;2023-04-09T08:03:38;95311.78;;;6.83;79.79
56330;BME280;42236;48.058;10.632;2023-04-09T08:06:25;95297.09;;;6.95;79.12
56330;BME280;42236;48.058;10.632;2023-04-09T08:09:11;95309.31;;;7.01;78.25
56330;BME280;42236;48.058;10.632;2023-04-09T08:11:57;95302.53;;;7.03;77.31
56330;BME280;42236;48.058;10.632;2023-04-09T08:14:42;95311.00;;;6.97;76.53
56330;BME280;42236;48.058;10.632;2023-04-09T08:17:28;95319.94;;;6.92;76.36
56330;BME280;42236;48.058;10.632;2023-04-09T08:20:14;95310.59;;;7.03;76.36
56330;BME280;42236;48.058;10.632;2023-04-09T08:23:01;95310.97;;;7.11;76.11
56330;BME280;42236;48.058;10.632;2023-04-09T08:25:47;95310.53;;;7.17;76.00
56330;BME280;42236;48.058;10.632;2023-04-09T08:28:32;95311.44;;;7.26;75.80
56330;BME280;42236;48.058;10.632;2023-04-09T08:31:18;95307.91;;;7.40;74.67
56330;BME280;42236;48.058;10.632;2023-04-09T08:34:04;95313.66;;;7.47;73.04
56330;BME280;42236;48.058;10.632;2023-04-09T08:36:50;95316.06;;;7.71;73.25
56330;BME280;42236;48.058;10.632;2023-04-09T08:39:35;95322.97;;;7.86;72.81
56330;BME280;42236;48.058;10.632;2023-04-09T08:42:22;95328.19;;;7.91;71.05
56330;BME280;42236;48.058;10.632;2023-04-09T08:45:09;95324.19;;;8.02;71.87
56330;BME280;42236;48.058;10.632;2023-04-09T08:47:56;95326.25;;;8.05;69.43
56330;BME280;42236;48.058;10.632;2023-04-09T08:50:45;95323.31;;;7.93;69.06
56330;BME280;42236;48.058;10.632;2023-04-09T08:53:30;95327.72;;;7.89;70.13
56330;BME280;42236;48.058;10.632;2023-04-09T08:56:16;95324.59;;;7.96;70.05
56330;BME280;42236;48.058;10.632;2023-04-09T08:59:02;95329.19;;;7.95;68.81
56330;BME280;42236;48.058;10.632;2023-04-09T09:01:47;95332.09;;;8.07;69.35
56330;BME280;42236;48.058;10.632;2023-04-09T09:07:31;95330.59;;;8.46;66.18
56330;BME280;42236;48.058;10.632;2023-04-09T09:10:16;95338.47;;;8.43;65.05
56330;BME280;42236;48.058;10.632;2023-04-09T09:13:18;95328.63;;;8.38;63.51
56330;BME280;42236;48.058;10.632;2023-04-09T09:16:12;95331.16;;;8.34;62.75
56330;BME280;42236;48.058;10.632;2023-04-09T09:18:58;95331.44;;;8.56;67.45
56330;BME280;42236;48.058;10.632;2023-04-09T09:21:57;95322.31;;;8.74;60.57
56330;BME280;42236;48.058;10.632;2023-04-09T09:24:47;95325.84;;;8.83;61.60
56330;BME280;42236;48.058;10.632;2023-04-09T09:27:35;95329.97;;;8.89;63.77
56330;BME280;42236;48.058;10.632;2023-04-09T09:30:23;95331.84;;;8.89;64.25
56330;BME280;42236;48.058;10.632;2023-04-09T09:33:09;95329.84;;;8.94;63.00
56330;BME280;42236;48.058;10.632;2023-04-09T09:35:55;95322.88;;;9.11;64.09
56330;BME280;42236;48.058;10.632;2023-04-09T09:38:50;95317.72;;;9.23;60.14
56330;BME280;42236;48.058;10.632;2023-04-09T09:41:38;95312.63;;;9.39;63.61
56330;BME280;42236;48.058;10.632;2023-04-09T09:44:32;95321.81;;;9.47;59.92
56330;BME280;42236;48.058;10.632;2023-04-09T09:47:20;95325.94;;;9.27;57.03
56330;BME280;42236;48.058;10.632;2023-04-09T09:50:06;95322.75;;;9.16;59.13
56330;BME280;42236;48.058;10.632;2023-04-09T09:53:04;95317.72;;;9.23;58.95
56330;BME280;42236;48.058;10.632;2023-04-09T09:55:52;95313.13;;;9.50;60.89
56330;BME280;42236;48.058;10.632;2023-04-09T09:58:52;95306.31;;;9.70;57.62
56330;BME280;42236;48.058;10.632;2023-04-09T10:01:39;95314.53;;;9.73;59.75
56330;BME280;42236;48.058;10.632;2023-04-09T10:04:27;95311.69;;;9.78;58.62
56330;BME280;42236;48.058;10.632;2023-04-09T10:07:13;95311.06;;;9.73;56.46
56330;BME280;42236;48.058;10.632;2023-04-09T10:10:01;95321.22;;;9.50;57.88
56330;BME280;42236;48.058;10.632;2023-04-09T10:12:47;95314.53;;;9.38;59.45
56330;BME280;42236;48.058;10.632;2023-04-09T10:15:33;95300.44;;;9.33;57.22
56330;BME280;42236;48.058;10.632;2023-04-09T10:18:19;95301.06;;;9.21;59.23
56330;BME280;42236;48.058;10.632;2023-04-09T10:23:59;95307.75;;;9.50;58.88
56330;BME280;42236;48.058;10.632;2023-04-09T10:26:45;95296.31;;;9.79;58.75
56330;BME280;42236;48.058;10.632;2023-04-09T10:29:31;95298.22;;;9.96;58.52
56330;BME280;42236;48.058;10.632;2023-04-09T10:32:23;95300.59;;;9.89;54.30
56330;BME280;42236;48.058;10.632;2023-04-09T10:35:24;95302.97;;;9.81;53.32
56330;BME280;42236;48.058;10.632;2023-04-09T10:38:10;95297.25;;;9.83;57.72
56330;BME280;42236;48.058;10.632;2023-04-09T10:40:56;95295.34;;;9.92;58.33
56330;BME280;42236;48.058;10.632;2023-04-09T10:43:42;95299.44;;;10.07;58.04
56330;BME280;42236;48.058;10.632;2023-04-09T10:46:30;95296.56;;;10.30;57.45
56330;BME280;42236;48.058;10.632;2023-04-09T10:49:20;95297.03;;;10.32;54.55
56330;BME280;42236;48.058;10.632;2023-04-09T10:52:10;95301.78;;;10.26;53.58
56330;BME280;42236;48.058;10.632;2023-04-09T10:54:58;95303.84;;;10.20;55.97
56330;BME280;42236;48.058;10.632;2023-04-09T10:57:44;95294.03;;;10.16;56.68
56330;BME280;42236;48.058;10.632;2023-04-09T11:00:29;95295.91;;;10.24;55.85
56330;BME280;42236;48.058;10.632;2023-04-09T11:06:07;95293.22;;;10.24;54.65
56330;BME280;42236;48.058;10.632;2023-04-09T11:09:00;95289.59;;;10.20;51.76
56330;BME280;42236;48.058;10.632;2023-04-09T11:11:53;95296.91;;;10.02;51.46
56330;BME280;42236;48.058;10.632;2023-04-09T11:14:39;95290.56;;;10.07;53.10
56330;BME280;42236;48.058;10.632;2023-04-09T11:17:24;95288.94;;;10.14;53.67
56330;BME280;42236;48.058;10.632;2023-04-09T11:20:12;95287.84;;;10.15;52.53
56330;BME280;42236;48.058;10.632;2023-04-09T11:22:58;95288.47;;;10.12;52.81
56330;BME280;42236;48.058;10.632;2023-04-09T11:25:48;95288.47;;;10.12;51.93
56330;BME280;42236;48.058;10.632;2023-04-09T11:28:35;95290.69;;;10.28;52.45
56330;BME280;42236;48.058;10.632;2023-04-09T11:31:26;95278.41;;;10.48;50.29
56330;BME280;42236;48.058;10.632;2023-04-09T11:34:12;95288.44;;;10.38;50.41
56330;BME280;42236;48.058;10.632;2023-04-09T11:36:58;95296.53;;;10.38;51.72
56330;BME280;42236;48.058;10.632;2023-04-09T11:40:03;95284.38;;;10.62;49.03
56330;BME280;42236;48.058;10.632;2023-04-09T11:42:50;95294.59;;;10.86;51.75
56330;BME280;42236;48.058;10.632;2023-04-09T11:45:36;95291.22;;;10.89;51.24
56330;BME280;42236;48.058;10.632;2023-04-09T11:48:23;95292.13;;;11.02;51.48
56330;BME280;42236;48.058;10.632;2023-04-09T11:51:09;95293.38;;;11.04;50.53
56330;BME280;42236;48.058;10.632;2023-04-09T11:53:55;95288.69;;;10.93;50.13
56330;BME280;42236;48.058;10.632;2023-04-09T11:56:41;95295.88;;;10.80;50.71
56330;BME280;42236;48.058;10.632;2023-04-09T11:59:27;95294.03;;;10.72;51.43
56330;BME280;42236;48.058;10.632;2023-04-09T12:02:16;95301.00;;;10.73;50.71
56330;BME280;42236;48.058;10.632;2023-04-09T12:05:02;95295.06;;;10.88;52.11
56330;BME280;42236;48.058;10.632;2023-04-09T12:07:49;95294.91;;;10.84;51.63
56330;BME280;42236;48.058;10.632;2023-04-09T12:10:37;95296.97;;;10.87;51.41
56330;BME280;42236;48.058;10.632;2023-04-09T12:13:31;95295.66;;;10.94;49.38
56330;BME280;42236;48.058;10.632;2023-04-09T12:16:18;95295.88;;;10.80;51.19
56330;BME280;42236;48.058;10.632;2023-04-09T12:19:07;95292.06;;;10.81;51.84
56330;BME280;42236;48.058;10.632;2023-04-09T12:21:54;95293.72;;;10.64;51.60
56330;BME280;42236;48.058;10.632;2023-04-09T12:24:40;95290.16;;;10.81;51.76
56330;BME280;42236;48.058;10.632;2023-04-09T12:27:26;95284.06;;;10.93;51.63
56330;BME280;42236;48.058;10.632;2023-04-09T12:30:11;95288.69;;;10.93;51.39
56330;BME280;42236;48.058;10.632;2023-04-09T12:32:58;95286.00;;;10.93;51.28
56330;BME280;42236;48.058;10.632;2023-04-09T12:35:44;95284.28;;;10.79;50.88
56330;BME280;42236;48.058;10.632;2023-04-09T12:38:29;95282.09;;;10.73;51.25
56330;BME280;42236;48.058;10.632;2023-04-09T12:41:15;95282.72;;;10.78;51.28
56330;BME280;42236;48.058;10.632;2023-04-09T12:44:01;95285.38;;;10.87;50.27
56330;BME280;42236;48.058;10.632;2023-04-09T12:46:47;95281.41;;;10.84;49.76
56330;BME280;42236;48.058;10.632;2023-04-09T12:49:32;95285.00;;;10.97;50.04
56330;BME280;42236;48.058;10.632;2023-04-09T12:52:18;95278.78;;;10.97;49.68
56330;BME280;42236;48.058;10.632;2023-04-09T12:55:10;95284.63;;;11.07;49.66
56330;BME280;42236;48.058;10.632;2023-04-09T12:57:56;95286.38;;;11.03;48.60
56330;BME280;42236;48.058;10.632;2023-04-09T13:00:42;95278.00;;;10.96;49.33
56330;BME280;42236;48.058;10.632;2023-04-09T13:03:28;95279.88;;;11.04;49.09
56330;BME280;42236;48.058;10.632;2023-04-09T13:06:13;95273.44;;;11.18;49.72
56330;BME280;42236;48.058;10.632;2023-04-09T13:09:00;95279.75;;;11.43;49.93
56330;BME280;42236;48.058;10.632;2023-04-09T13:11:45;95278.34;;;11.45;48.80
56330;BME280;42236;48.058;10.632;2023-04-09T13:14:31;95280.38;;;11.48;48.87
56330;BME280;42236;48.058;10.632;2023-04-09T13:17:17;95278.19;;;11.63;48.57
56330;BME280;42236;48.058;10.632;2023-04-09T13:20:03;95273.63;;;11.54;47.51
56330;BME280;42236;48.058;10.632;2023-04-09T13:22:48;95275.16;;;11.43;47.98
56330;BME280;42236;48.058;10.632;2023-04-09T13:25:35;95276.75;;;11.44;47.93
56330;BME280;42236;48.058;10.632;2023-04-09T13:28:21;95275.09;;;11.31;47.62
56330;BME280;42236;48.058;10.632;2023-04-09T13:31:06;95271.06;;;11.37;48.02
56330;BME280;42236;48.058;10.632;2023-04-09T13:33:52;95273.31;;;11.35;47.86
56330;BME280;42236;48.058;10.632;2023-04-09T13:36:37;95268.56;;;11.32;47.92
56330;BME280;42236;48.058;10.632;2023-04-09T13:39:23;95265.66;;;11.37;47.97
56330;BME280;42236;48.058;10.632;2023-04-09T13:42:09;95266.19;;;11.30;47.54
56330;BME280;42236;48.058;10.632;2023-04-09T13:44:55;95265.66;;;11.37;46.62
56330;BME280;42236;48.058;10.632;2023-04-09T13:47:41;95265.41;;;11.30;47.87
56330;BME280;42236;48.058;10.632;2023-04-09T13:50:27;95265.94;;;11.44;48.01
56330;BME280;42236;48.058;10.632;2023-04-09T13:53:13;95263.03;;;11.49;46.26
56330;BME280;42236;48.058;10.632;2023-04-09T13:55:59;95261.19;;;11.41;47.48
56330;BME280;42236;48.058;10.632;2023-04-09T13:58:44;95257.97;;;11.48;47.91
56330;BME280;42236;48.058;10.632;2023-04-09T14:01:31;95258.91;;;11.64;47.69
56330;BME280;42236;48.058;10.632;2023-04-09T14:04:17;95256.31;;;11.56;46.77
56330;BME280;42236;48.058;10.632;2023-04-09T14:07:03;95254.97;;;11.62;47.33
56330;BME280;42236;48.058;10.632;2023-04-09T14:09:49;95255.38;;;11.72;47.67
56330;BME280;42236;48.058;10.632;2023-04-09T14:12:38;95255.91;;;11.66;46.88
56330;BME280;42236;48.058;10.632;2023-04-09T14:15:24;95256.97;;;11.52;47.63
56330;BME280;42236;48.058;10.632;2023-04-09T14:18:10;95251.97;;;11.42;48.31
56330;BME280;42236;48.058;10.632;2023-04-09T14:20:56;95252.38;;;11.53;48.51
56330;BME280;42236;48.058;10.632;2023-04-09T14:23:42;95250.91;;;11.56;48.33
56330;BME280;42236;48.058;10.632;2023-04-09T14:26:28;95253.34;;;11.48;48.30
56330;BME280;42236;48.058;10.632;2023-04-09T14:29:23;95251.81;;;11.60;46.71
56330;BME280;42236;48.058;10.632;2023-04-09T14:32:08;95247.63;;;11.83;47.87
56330;BME280;42236;48.058;10.632;2023-04-09T14:34:54;95243.09;;;11.96;47.75
56330;BME280;42236;48.058;10.632;2023-04-09T14:37:40;95247.28;;;12.06;47.75
56330;BME280;42236;48.058;10.632;2023-04-09T14:40:33;95245.22;;;12.03;47.60
56330;BME280;42236;48.058;10.632;2023-04-09T14:43:20;95241.19;;;12.09;47.68
56330;BME280;42236;48.058;10.632;2023-04-09T14:46:06;95240.41;;;11.75;48.23
56330;BME280;42236;48.058;10.632;2023-04-09T14:48:56;95243.78;;;11.51;48.02
56330;BME280;42236;48.058;10.632;2023-04-09T14:51:41;95238.53;;;11.13;48.77
56330;BME280;42236;48.058;10.632;2023-04-09T14:54:27;95240.97;;;11.05;48.87